Terminal Aerodrome Forecast
Issued by NWS

Home | Current Version | Previous Version | Text Only | Print | Product List | Glossary On
Versions: 1 2 3 4 5 6 7 8 9 10 11 12 13 14 15 16 17 18 19
000
FTUS43 KDLH 302337
TAFBRD
TAF
KBRD 302337Z 0100/0124 12004KT P6SM FEW200
     FM010400 11003KT 5SM BR BKN009
     FM010600 VRB02KT 3SM BR OVC006
      TEMPO 0109/0113 1/2SM FG OVC004
     FM011500 08006KT P6SM BKN010 BKN045
     FM011700 11006KT P6SM SCT010 BKN050=

USA.gov is the U.S. government's official web portal to all federal, state and local government web resources and services.